Wetterdaten: Woche 22.09.03 - 28.09.03 (KW39)
Datum Zeit Temperatur Luftfeuchte Luftdruck Regenmenge Wind Richtung Taupunkt Windchill
22.09.2003 00:00 12.8 C 75 % 1019.0 hPa 0.0 l/m 2.8 km/h (1 Bft) O-SO 8.4 C 12.8 C
22.09.2003 01:00 11.9 C 78 % 1019.0 hPa 0.0 l/m 1.9 km/h (1 Bft) O-SO 8.3 C 11.9 C
22.09.2003 02:00 11.0 C 80 % 1019.0 hPa 0.0 l/m 0.0 km/h (0 Bft) N 7.7 C 11.0 C
22.09.2003 03:00 10.4 C 86 % 1018.4 hPa 0.0 l/m 0.2 km/h (0 Bft) O-SO 8.2 C 10.4 C
22.09.2003 04:00 10.0 C 87 % 1018.0 hPa 0.0 l/m 0.2 km/h (0 Bft) O-SO 8.0 C 10.0 C
22.09.2003 05:00 9.4 C 89 % 1018.0 hPa 0.0 l/m 0.0 km/h (0 Bft) N 7.6 C 9.4 C
22.09.2003 06:00 9.1 C 91 % 1017.6 hPa 0.0 l/m 0.0 km/h (0 Bft) N 7.7 C 9.1 C
22.09.2003 07:00 9.5 C 93 % 1017.2 hPa 0.0 l/m 0.0 km/h (0 Bft) N 8.4 C 9.5 C
22.09.2003 08:00 10.9 C 95 % 1018.0 hPa 0.0 l/m 0.0 km/h (0 Bft) N 10.2 C 10.9 C
22.09.2003 09:00 12.8 C 85 % 1017.0 hPa 0.0 l/m 0.0 km/h (0 Bft) N 10.4 C 12.8 C
22.09.2003 10:00 15.9 C 74 % 1016.9 hPa 0.0 l/m 0.0 km/h (0 Bft) N 11.2 C 15.9 C
22.09.2003 11:00 19.4 C 63 % 1016.1 hPa 0.0 l/m 1.0 km/h (0 Bft) N-NW 12.1 C 19.4 C
22.09.2003 12:00 22.8 C 51 % 1015.0 hPa 0.0 l/m 7.9 km/h (2 Bft) SO 12.2 C 22.8 C
22.09.2003 13:00 24.8 C 41 % 1014.0 hPa 0.0 l/m 5.9 km/h (2 Bft) SO 10.8 C 24.8 C
22.09.2003 14:00 26.6 C 34 % 1012.9 hPa 0.0 l/m 4.2 km/h (1 Bft) SO 9.3 C 26.6 C
22.09.2003 15:00 27.4 C 30 % 1011.7 hPa 0.0 l/m 8.2 km/h (2 Bft) SO 8.4 C 27.4 C
22.09.2003 16:00 27.3 C 32 % 1010.9 hPa 0.0 l/m 8.8 km/h (2 Bft) SO 9.1 C 27.3 C
22.09.2003 17:00 26.0 C 35 % 1010.4 hPa 0.0 l/m 8.7 km/h (2 Bft) SO 9.4 C 26.0 C
22.09.2003 18:00 25.2 C 36 % 1009.7 hPa 0.0 l/m 7.8 km/h (2 Bft) SO 9.1 C 25.2 C
22.09.2003 19:00 22.7 C 41 % 1009.7 hPa 0.0 l/m 7.7 km/h (2 Bft) SO 8.7 C 22.7 C
22.09.2003 20:00 20.9 C 45 % 1010.1 hPa 0.0 l/m 3.5 km/h (1 Bft) W-NW 8.5 C 20.9 C
22.09.2003 21:00 20.2 C 49 % 1010.7 hPa 0.0 l/m 1.3 km/h (1 Bft) SO 9.3 C 20.2 C
22.09.2003 22:00 19.4 C 53 % 1010.7 hPa 0.0 l/m 3.2 km/h (1 Bft) O-SO 9.7 C 19.4 C
22.09.2003 23:00 19.8 C 54 % 1010.7 hPa 0.0 l/m 4.0 km/h (1 Bft) SO 10.2 C 19.8 C
23.09.2003 00:00 19.3 C 56 % 1010.7 hPa 0.0 l/m 5.5 km/h (1 Bft) W-NW 10.2 C 19.3 C
23.09.2003 01:00 17.9 C 64 % 1010.7 hPa 0.0 l/m 3.8 km/h (1 Bft) W-NW 10.9 C 17.9 C
23.09.2003 02:00 17.0 C 71 % 1010.7 hPa 0.0 l/m 0.3 km/h (0 Bft) S-SW 11.6 C 17.0 C
23.09.2003 03:00 16.4 C 77 % 1010.7 hPa 0.0 l/m 0.6 km/h (0 Bft) S 12.4 C 16.4 C
23.09.2003 04:00 16.6 C 74 % 1010.7 hPa 0.0 l/m 4.8 km/h (1 Bft) W-NW 11.9 C 16.6 C
23.09.2003 05:00 17.9 C 65 % 1010.9 hPa 0.0 l/m 21.7 km/h (4 Bft) W-NW 11.2 C 17.9 C
23.09.2003 06:00 15.8 C 83 % 1011.7 hPa 0.4 l/m 4.8 km/h (1 Bft) W-NW 12.9 C 15.8 C
23.09.2003 07:00 15.2 C 91 % 1011.7 hPa 0.0 l/m 0.7 km/h (0 Bft) W-NW 13.7 C 15.2 C
23.09.2003 08:00 15.5 C 94 % 1012.1 hPa 0.0 l/m 1.6 km/h (1 Bft) SW 14.5 C 15.5 C
23.09.2003 09:00 16.0 C 89 % 1012.8 hPa 0.0 l/m 2.0 km/h (1 Bft) S-SW 14.2 C 16.0 C
23.09.2003 10:00 17.8 C 72 % 1012.9 hPa 0.0 l/m 8.3 km/h (2 Bft) W-NW 12.6 C 17.8 C
23.09.2003 11:00 17.8 C 62 % 1013.8 hPa 0.0 l/m 29.8 km/h (5 Bft) W-NW 10.3 C 17.8 C
23.09.2003 12:00 16.5 C 71 % 1013.8 hPa 0.0 l/m 31.3 km/h (5 Bft) NW 11.2 C 16.5 C
23.09.2003 13:00 15.6 C 78 % 1014.7 hPa 0.4 l/m 27.6 km/h (4 Bft) NW 11.7 C 15.6 C
23.09.2003 14:00 14.6 C 81 % 1014.8 hPa 0.0 l/m 19.8 km/h (4 Bft) W-NW 11.3 C 14.6 C
23.09.2003 15:00 14.6 C 75 % 1015.4 hPa 0.4 l/m 19.4 km/h (3 Bft) W-NW 10.2 C 14.6 C
23.09.2003 16:00 14.1 C 75 % 1015.9 hPa 0.0 l/m 22.2 km/h (4 Bft) W-NW 9.7 C 14.1 C
23.09.2003 17:00 13.6 C 74 % 1016.7 hPa 0.0 l/m 22.4 km/h (4 Bft) W-NW 9.1 C 13.6 C
23.09.2003 18:00 12.3 C 86 % 1018.1 hPa 0.4 l/m 14.2 km/h (3 Bft) W-NW 10.0 C 12.3 C
23.09.2003 19:00 11.9 C 91 % 1019.2 hPa 0.4 l/m 1.0 km/h (0 Bft) W 10.5 C 11.9 C
23.09.2003 20:00 11.6 C 92 % 1020.7 hPa 0.0 l/m 3.8 km/h (1 Bft) SO 10.4 C 11.6 C
23.09.2003 21:00 11.3 C 88 % 1022.0 hPa 0.0 l/m 1.8 km/h (1 Bft) SO 9.5 C 11.3 C
23.09.2003 22:00 11.1 C 88 % 1022.7 hPa 0.0 l/m 3.0 km/h (1 Bft) SO 9.3 C 11.1 C
23.09.2003 23:00 11.1 C 90 % 1023.1 hPa 0.0 l/m 0.0 km/h (0 Bft) N 9.6 C 11.1 C
24.09.2003 00:00 10.8 C 91 % 1023.1 hPa 0.0 l/m 0.4 km/h (0 Bft) SO 9.4 C 10.8 C
24.09.2003 01:00 10.1 C 92 % 1023.1 hPa 0.0 l/m 0.7 km/h (0 Bft) S-SO 8.9 C 10.1 C
24.09.2003 02:00 9.9 C 94 % 1023.1 hPa 0.0 l/m 0.7 km/h (0 Bft) S-SO 8.9 C 9.8 C
24.09.2003 03:00 10.1 C 95 % 1024.1 hPa 0.0 l/m 0.3 km/h (0 Bft) SW 9.3 C 10.1 C
24.09.2003 04:00 9.4 C 94 % 1024.2 hPa 0.0 l/m 0.2 km/h (0 Bft) SW 8.5 C 9.4 C
24.09.2003 05:00 9.0 C 86 % 1024.2 hPa 0.0 l/m 0.3 km/h (0 Bft) NO 6.7 C 9.0 C
24.09.2003 06:00 8.7 C 79 % 1024.9 hPa 0.0 l/m 1.4 km/h (1 Bft) W-NW 5.2 C 8.5 C
24.09.2003 07:00 8.0 C 80 % 1025.2 hPa 0.0 l/m 0.6 km/h (0 Bft) SO 4.7 C 7.9 C
24.09.2003 08:00 8.7 C 80 % 1025.9 hPa 0.0 l/m 2.4 km/h (1 Bft) SO 5.3 C 8.4 C
24.09.2003 09:00 9.8 C 73 % 1026.3 hPa 0.0 l/m 3.4 km/h (1 Bft) NO 5.1 C 9.6 C
24.09.2003 10:00 11.1 C 66 % 1026.6 hPa 0.0 l/m 6.9 km/h (2 Bft) NO 5.0 C 11.1 C
24.09.2003 11:00 12.9 C 61 % 1027.3 hPa 0.0 l/m 8.0 km/h (2 Bft) O-NO 5.4 C 12.9 C
24.09.2003 12:00 14.3 C 55 % 1027.3 hPa 0.0 l/m 19.3 km/h (3 Bft) O-SO 5.4 C 14.3 C
24.09.2003 13:00 15.5 C 48 % 1027.3 hPa 0.0 l/m 37.3 km/h (5 Bft) O-SO 4.4 C 15.5 C
24.09.2003 14:00 15.8 C 45 % 1027.3 hPa 0.0 l/m 32.4 km/h (5 Bft) O-SO 3.8 C 15.8 C
24.09.2003 15:00 16.2 C 42 % 1026.5 hPa 0.0 l/m 19.8 km/h (3 Bft) O-SO 3.3 C 16.2 C
24.09.2003 16:00 15.7 C 41 % 1026.3 hPa 0.0 l/m 24.0 km/h (4 Bft) O-SO 2.7 C 15.7 C
24.09.2003 17:00 15.5 C 42 % 1026.3 hPa 0.0 l/m 27.6 km/h (4 Bft) O-SO 2.6 C 15.5 C
24.09.2003 18:00 14.4 C 45 % 1026.3 hPa 0.0 l/m 21.1 km/h (4 Bft) O-SO 2.7 C 14.4 C
24.09.2003 19:00 12.6 C 52 % 1026.3 hPa 0.0 l/m 6.0 km/h (2 Bft) O-SO 3.0 C 12.6 C
24.09.2003 20:00 11.9 C 55 % 1026.6 hPa 0.0 l/m 2.2 km/h (1 Bft) NO 3.2 C 11.9 C
24.09.2003 21:00 11.1 C 59 % 1027.3 hPa 0.0 l/m 1.2 km/h (1 Bft) NO 3.3 C 11.1 C
24.09.2003 22:00 10.3 C 63 % 1027.3 hPa 0.0 l/m 0.5 km/h (0 Bft) NO 3.5 C 10.3 C
24.09.2003 23:00 10.2 C 62 % 1026.7 hPa 0.0 l/m 2.9 km/h (1 Bft) N-NO 3.3 C 10.2 C
25.09.2003 00:00 9.8 C 63 % 1026.3 hPa 0.0 l/m 1.5 km/h (1 Bft) NO 3.0 C 9.8 C
25.09.2003 01:00 9.5 C 64 % 1026.3 hPa 0.0 l/m 1.4 km/h (1 Bft) N-NO 2.9 C 9.4 C
25.09.2003 02:00 8.9 C 65 % 1026.3 hPa 0.0 l/m 1.4 km/h (1 Bft) O-SO 2.7 C 8.8 C
25.09.2003 03:00 6.6 C 76 % 1026.3 hPa 0.0 l/m 1.0 km/h (0 Bft) SO 2.6 C 6.5 C
25.09.2003 04:00 5.7 C 82 % 1026.3 hPa 0.0 l/m 3.2 km/h (1 Bft) O-SO 2.9 C 5.1 C
25.09.2003 05:00 5.4 C 85 % 1026.3 hPa 0.0 l/m 4.9 km/h (1 Bft) O-SO 3.1 C 4.4 C
25.09.2003 06:00 4.9 C 87 % 1026.9 hPa 0.0 l/m 2.4 km/h (1 Bft) O-SO 3.0 C 4.6 C
25.09.2003 07:00 4.8 C 89 % 1027.3 hPa 0.0 l/m 3.3 km/h (1 Bft) O-SO 3.3 C 4.3 C
25.09.2003 08:00 6.3 C 88 % 1027.3 hPa 0.0 l/m 0.5 km/h (0 Bft) O-SO 4.5 C 6.3 C
25.09.2003 09:00 8.8 C 75 % 1027.3 hPa 0.0 l/m 5.0 km/h (1 Bft) O-SO 4.7 C 8.4 C
25.09.2003 10:00 11.1 C 66 % 1027.3 hPa 0.0 l/m 10.1 km/h (2 Bft) O-SO 4.9 C 11.1 C
25.09.2003 11:00 12.8 C 61 % 1027.3 hPa 0.0 l/m 14.1 km/h (3 Bft) O-SO 5.5 C 12.8 C
25.09.2003 12:00 14.3 C 58 % 1027.2 hPa 0.0 l/m 15.1 km/h (3 Bft) O-SO 6.1 C 14.3 C
25.09.2003 13:00 16.4 C 50 % 1026.5 hPa 0.0 l/m 16.2 km/h (3 Bft) O-SO 5.8 C 16.4 C
25.09.2003 14:00 17.4 C 46 % 1026.3 hPa 0.0 l/m 15.4 km/h (3 Bft) O-SO 5.7 C 17.4 C
25.09.2003 15:00 18.1 C 45 % 1025.6 hPa 0.0 l/m 13.2 km/h (3 Bft) O-SO 6.0 C 18.1 C
25.09.2003 16:00 18.5 C 45 % 1024.7 hPa 0.0 l/m 14.2 km/h (3 Bft) O-SO 6.3 C 18.5 C
25.09.2003 17:00 18.2 C 45 % 1024.2 hPa 0.0 l/m 12.2 km/h (2 Bft) O-SO 6.2 C 18.2 C
25.09.2003 18:00 17.2 C 49 % 1024.2 hPa 0.0 l/m 11.5 km/h (2 Bft) O-SO 6.3 C 17.2 C
25.09.2003 19:00 14.3 C 61 % 1024.2 hPa 0.0 l/m 4.9 km/h (1 Bft) O-SO 6.8 C 14.3 C
25.09.2003 20:00 12.2 C 73 % 1024.2 hPa 0.0 l/m 3.9 km/h (1 Bft) O-SO 7.4 C 12.2 C
25.09.2003 21:00 10.6 C 80 % 1024.2 hPa 0.0 l/m 3.2 km/h (1 Bft) O-SO 7.3 C 10.6 C
25.09.2003 22:00 9.3 C 86 % 1024.2 hPa 0.0 l/m 0.4 km/h (0 Bft) O-SO 7.1 C 9.3 C
25.09.2003 23:00 8.4 C 90 % 1024.2 hPa 0.0 l/m 0.3 km/h (0 Bft) O-SO 6.9 C 8.4 C
26.09.2003 00:00 7.9 C 93 % 1024.2 hPa 0.0 l/m 0.2 km/h (0 Bft) O-SO 6.8 C 7.9 C
26.09.2003 01:00 6.8 C 94 % 1024.2 hPa 0.0 l/m 0.0 km/h (0 Bft) N 5.9 C 6.8 C
26.09.2003 02:00 6.6 C 95 % 1024.2 hPa 0.0 l/m 0.0 km/h (0 Bft) N 5.8 C 6.6 C
26.09.2003 03:00 5.9 C 95 % 1023.7 hPa 0.0 l/m 0.6 km/h (0 Bft) O-SO 5.2 C 5.9 C
26.09.2003 04:00 5.6 C 96 % 1023.2 hPa 0.0 l/m 0.3 km/h (0 Bft) O-SO 4.9 C 5.6 C
26.09.2003 05:00 5.4 C 95 % 1023.1 hPa 0.0 l/m 0.1 km/h (0 Bft) N 4.7 C 5.4 C
26.09.2003 06:00 4.8 C 95 % 1023.1 hPa 0.0 l/m 0.5 km/h (0 Bft) O-SO 4.1 C 4.8 C
26.09.2003 07:00 5.0 C 96 % 1023.1 hPa 0.0 l/m 0.2 km/h (0 Bft) N 4.4 C 5.0 C
26.09.2003 08:00 6.8 C 99 % 1023.1 hPa 0.0 l/m 0.5 km/h (0 Bft) O-SO 6.6 C 6.8 C
26.09.2003 09:00 8.6 C 95 % 1023.1 hPa 0.0 l/m 0.0 km/h (0 Bft) N 7.8 C 8.6 C
26.09.2003 10:00 10.6 C 88 % 1023.1 hPa 0.0 l/m 0.8 km/h (0 Bft) O-SO 8.7 C 10.6 C
26.09.2003 11:00 13.6 C 79 % 1022.6 hPa 0.0 l/m 2.4 km/h (1 Bft) SO 10.0 C 13.6 C
26.09.2003 12:00 17.7 C 64 % 1021.6 hPa 0.0 l/m 6.7 km/h (2 Bft) SO 10.7 C 17.7 C
26.09.2003 13:00 20.8 C 52 % 1020.6 hPa 0.0 l/m 12.2 km/h (2 Bft) SO 10.5 C 20.8 C
26.09.2003 14:00 23.0 C 43 % 1020.0 hPa 0.0 l/m 12.0 km/h (2 Bft) SO 9.7 C 23.0 C
26.09.2003 15:00 23.7 C 38 % 1019.0 hPa 0.0 l/m 9.5 km/h (2 Bft) SO 8.5 C 23.7 C
26.09.2003 16:00 23.7 C 40 % 1018.5 hPa 0.0 l/m 5.6 km/h (1 Bft) SO 9.4 C 23.7 C
26.09.2003 17:00 22.8 C 44 % 1018.0 hPa 0.0 l/m 3.6 km/h (1 Bft) W 10.0 C 22.8 C
26.09.2003 18:00 20.9 C 50 % 1018.0 hPa 0.0 l/m 1.2 km/h (1 Bft) W-NW 9.9 C 20.9 C
26.09.2003 19:00 18.4 C 59 % 1018.1 hPa 0.0 l/m 1.8 km/h (1 Bft) SO 10.3 C 18.4 C
26.09.2003 20:00 17.1 C 67 % 1019.0 hPa 0.0 l/m 5.1 km/h (1 Bft) O-SO 11.0 C 17.1 C
26.09.2003 21:00 15.9 C 73 % 1019.0 hPa 0.0 l/m 3.8 km/h (1 Bft) O-SO 11.1 C 15.9 C
26.09.2003 22:00 14.2 C 77 % 1020.0 hPa 0.0 l/m 0.0 km/h (0 Bft) N 10.3 C 14.2 C
26.09.2003 23:00 12.9 C 82 % 1020.0 hPa 0.0 l/m 0.0 km/h (0 Bft) N 9.9 C 12.9 C
27.09.2003 00:00 12.0 C 86 % 1019.9 hPa 0.0 l/m 0.0 km/h (0 Bft) N 9.7 C 12.0 C
27.09.2003 01:00 10.9 C 87 % 1019.0 hPa 0.0 l/m 0.0 km/h (0 Bft) O-SO 8.8 C 10.9 C
27.09.2003 02:00 10.1 C 90 % 1019.0 hPa 0.0 l/m 0.7 km/h (0 Bft) O-SO 8.5 C 10.1 C
27.09.2003 03:00 9.7 C 92 % 1019.0 hPa 0.0 l/m 0.0 km/h (0 Bft) N 8.4 C 9.7 C
27.09.2003 04:00 8.9 C 93 % 1019.0 hPa 0.0 l/m 0.0 km/h (0 Bft) N 7.8 C 8.9 C
27.09.2003 05:00 8.4 C 95 % 1018.9 hPa 0.0 l/m 0.0 km/h (0 Bft) N 7.6 C 8.4 C
27.09.2003 06:00 7.7 C 95 % 1019.0 hPa 0.0 l/m 0.0 km/h (0 Bft) N 7.0 C 7.7 C
27.09.2003 07:00 7.6 C 96 % 1019.0 hPa 0.0 l/m 0.0 km/h (0 Bft) N 7.0 C 7.6 C
27.09.2003 08:00 8.8 C 99 % 1019.0 hPa 0.0 l/m 0.4 km/h (0 Bft) O-SO 8.6 C 8.8 C
27.09.2003 09:00 10.5 C 97 % 1019.0 hPa 0.0 l/m 0.1 km/h (0 Bft) N 10.0 C 10.5 C
27.09.2003 10:00 13.4 C 83 % 1019.0 hPa 0.0 l/m 0.1 km/h (0 Bft) N 10.6 C 13.4 C
27.09.2003 11:00 17.3 C 64 % 1018.4 hPa 0.0 l/m 4.4 km/h (1 Bft) O-SO 10.5 C 17.3 C
27.09.2003 12:00 19.6 C 54 % 1017.7 hPa 0.0 l/m 1.7 km/h (1 Bft) SO 10.1 C 19.6 C
27.09.2003 13:00 21.3 C 46 % 1016.9 hPa 0.0 l/m 2.0 km/h (1 Bft) W-NW 9.2 C 21.3 C
27.09.2003 14:00 22.7 C 40 % 1016.2 hPa 0.0 l/m 1.5 km/h (1 Bft) NW 8.4 C 22.7 C
27.09.2003 15:00 22.0 C 41 % 1015.9 hPa 0.0 l/m 3.0 km/h (1 Bft) W-NW 8.1 C 22.0 C
27.09.2003 16:00 22.5 C 39 % 1015.0 hPa 0.0 l/m 6.2 km/h (2 Bft) W-NW 7.7 C 22.5 C
27.09.2003 17:00 20.6 C 43 % 1014.8 hPa 0.0 l/m 10.1 km/h (2 Bft) W-NW 7.6 C 20.6 C
27.09.2003 18:00 19.1 C 43 % 1014.8 hPa 0.0 l/m 1.7 km/h (1 Bft) W-NW 6.4 C 19.1 C
27.09.2003 19:00 18.1 C 46 % 1014.9 hPa 0.0 l/m 0.0 km/h (0 Bft) N 6.3 C 18.1 C
27.09.2003 20:00 17.2 C 52 % 1015.1 hPa 0.0 l/m 0.0 km/h (0 Bft) N 7.2 C 17.2 C
27.09.2003 21:00 16.2 C 57 % 1014.8 hPa 0.0 l/m 2.6 km/h (1 Bft) SW 7.6 C 16.2 C
27.09.2003 22:00 15.0 C 64 % 1014.8 hPa 0.0 l/m 1.3 km/h (1 Bft) S 8.3 C 15.0 C
27.09.2003 23:00 14.4 C 68 % 1014.8 hPa 0.0 l/m 3.5 km/h (1 Bft) O-SO 8.5 C 14.4 C
28.09.2003 00:00 14.0 C 72 % 1014.8 hPa 0.0 l/m 2.7 km/h (1 Bft) O-SO 9.0 C 14.0 C
28.09.2003 01:00 13.6 C 76 % 1014.8 hPa 0.0 l/m 3.6 km/h (1 Bft) O-SO 9.5 C 13.6 C
28.09.2003 02:00 12.8 C 86 % 1014.7 hPa 0.0 l/m 1.0 km/h (0 Bft) O 10.5 C 12.8 C
28.09.2003 03:00 12.8 C 88 % 1013.9 hPa 0.0 l/m 2.2 km/h (1 Bft) O-SO 10.7 C 12.8 C
28.09.2003 04:00 12.3 C 87 % 1013.8 hPa 0.0 l/m 0.0 km/h (0 Bft) N 10.2 C 12.3 C
28.09.2003 05:00 11.9 C 91 % 1012.8 hPa 0.0 l/m 0.7 km/h (0 Bft) O-SO 10.5 C 11.9 C
28.09.2003 06:00 12.1 C 94 % 1012.8 hPa 0.4 l/m 0.2 km/h (0 Bft) O-SO 11.0 C 12.1 C
28.09.2003 07:00 12.1 C 94 % 1012.8 hPa 0.0 l/m 0.1 km/h (0 Bft) N 11.2 C 12.1 C
28.09.2003 08:00 12.5 C 96 % 1012.8 hPa 0.0 l/m 0.0 km/h (0 Bft) N 11.8 C 12.5 C
28.09.2003 09:00 12.8 C 95 % 1012.8 hPa 0.0 l/m 0.4 km/h (0 Bft) SW 12.1 C 12.8 C
28.09.2003 10:00 13.3 C 92 % 1012.2 hPa 0.0 l/m 1.2 km/h (1 Bft) W-NW 11.9 C 13.3 C
28.09.2003 11:00 14.7 C 88 % 1011.7 hPa 0.0 l/m 0.7 km/h (0 Bft) NW 12.7 C 14.7 C
28.09.2003 12:00 17.2 C 75 % 1011.2 hPa 0.0 l/m 1.0 km/h (0 Bft) W-NW 12.7 C 17.2 C
28.09.2003 13:00 18.1 C 68 % 1010.7 hPa 0.0 l/m 10.2 km/h (2 Bft) NW 12.2 C 18.1 C
28.09.2003 14:00 17.4 C 68 % 1010.7 hPa 0.0 l/m 15.9 km/h (3 Bft) NW 11.4 C 17.4 C
28.09.2003 15:00 16.5 C 72 % 1010.7 hPa 0.0 l/m 21.0 km/h (4 Bft) W-NW 11.4 C 16.5 C
28.09.2003 16:00 15.5 C 79 % 1010.7 hPa 0.4 l/m 12.8 km/h (3 Bft) W-NW 11.9 C 15.5 C
28.09.2003 17:00 14.1 C 87 % 1011.3 hPa 0.8 l/m 7.4 km/h (2 Bft) W-NW 12.0 C 14.1 C
28.09.2003 18:00 13.9 C 92 % 1011.0 hPa 0.4 l/m 2.8 km/h (1 Bft) W-NW 12.7 C 13.9 C
28.09.2003 19:00 13.6 C 92 % 1011.7 hPa 0.4 l/m 2.5 km/h (1 Bft) O-SO 12.4 C 13.6 C
28.09.2003 20:00 13.3 C 94 % 1011.7 hPa 0.0 l/m 1.6 km/h (1 Bft) O-SO 12.2 C 13.3 C
28.09.2003 21:00 13.3 C 97 % 1011.7 hPa 0.0 l/m 0.0 km/h (0 Bft) N 12.8 C 13.3 C
28.09.2003 22:00 13.1 C 96 % 1011.7 hPa 0.4 l/m 0.0 km/h (0 Bft) N 12.4 C 13.1 C
28.09.2003 23:00 13.1 C 96 % 1012.3 hPa 0.0 l/m 2.8 km/h (1 Bft) NW 12.5 C 13.1 C
Min-Datum _ 25.09.03 22.09.03 22.09.03 - 22.09.03 - 24.09.03 25.09.03
_ Min-Zeit 07:23 15:05 17:44 - 00:02 - 16:14 07:26
Minimum _ 4.4 C 30 % 1009.7 hPa - 0.0 km/h (0 Bft) - 2.0 C 2.4 C
Max-Datum _ 22.09.03 26.09.03 24.09.03 28.09.03 23.09.03 - 23.09.03 22.09.03
_ Max-Zeit 16:35 03:35 10:41 16:00 11:59 - 08:26 16:35
Maximum _ 27.7 C 100 % 1027.3 hPa 0.8 l/m 55.1 km/h
W-NW (7 Bft)
- 14.7 C 27.7 C
Durchschnitt _ 14.0 C 72 % 1018.9 hPa #4.6 l/m 5.4 km/h (1 Bft) O-SO 8.4 C 13.9 C

Durchschnitt Minimum Temp.13.2 C
Durchschnitt Maximum Temp.14.8 C
© Kaiko 2003